Disclaimer

Please do not use the information listed here in-flight or in-navigation, as they are not provided to us by the airports but are provided by volunteers, so they might be outdated.

Search


Regions


Airport information page

Radio informations:
Tower (TWR) - 118.0 MHz
VALLEDUPAR RDO - 3488 MHz

Airport informations:
Latitude: 10° 26' 06.15" N
Longitude: 073° 14' 58.22" W
Elevation: 456 feet - 139 meters
Operating hours: Remarks
Operating agency: Civil government, landing fees and diplomatic clearance may be required
Timezone: UTC-5
Fuel: 100/130 MIL Spec, low lead, aviation gasoline (BLUE)

Runway information:
02/20 - 6890 x 98 feet< - >2100 x 30 meters

Recent METARs:
SKVP 201800Z 05006KT 9999 FEW020 SCT200 35/24 A2984
SKVP 202000Z 09008KT 9999 FEW020 SCT200 34/23 A2980
SKVP 202000Z 09008KT 9999 FEW020 SCT200 34/23 A2980

Airport on the map: